createdAt,value
2023-01-28T00:01:32.795Z,1.10
2023-01-28T00:04:00.646Z,0.77
2023-01-28T00:06:28.624Z,0.90
2023-01-28T00:08:56.997Z,1.27
2023-01-28T00:11:26.820Z,1.20
2023-01-28T00:13:55.541Z,0.90
2023-01-28T00:16:23.594Z,0.70
2023-01-28T00:18:51.822Z,1.53
2023-01-28T00:21:19.687Z,0.80
2023-01-28T00:23:51.483Z,2.10
2023-01-28T00:26:19.482Z,1.13
2023-01-28T00:28:49.015Z,0.70
2023-01-28T00:31:18.950Z,0.73
2023-01-28T00:33:48.213Z,1.00
2023-01-28T00:36:16.729Z,0.73
2023-01-28T00:38:44.668Z,0.80
2023-01-28T00:41:14.825Z,0.87
2023-01-28T00:43:44.795Z,1.10
2023-01-28T00:46:14.841Z,0.87
2023-01-28T00:48:44.416Z,0.60
2023-01-28T00:51:13.913Z,0.80
2023-01-28T00:53:42.215Z,2.73
2023-01-28T00:56:13.572Z,1.40
2023-01-28T00:58:41.483Z,1.50
2023-01-28T01:01:10.356Z,0.87
2023-01-28T01:03:40.122Z,0.93
2023-01-28T01:06:08.947Z,1.23
2023-01-28T01:08:39.986Z,1.20
2023-01-28T01:11:08.640Z,1.20
2023-01-28T01:13:37.455Z,1.57
2023-01-28T01:16:07.530Z,1.00
2023-01-28T01:18:35.651Z,1.27
2023-01-28T01:21:08.416Z,0.93
2023-01-28T01:23:36.329Z,1.40
2023-01-28T01:26:05.399Z,3.33
2023-01-28T01:28:33.679Z,1.60
2023-01-28T01:31:02.877Z,1.17
2023-01-28T01:33:31.762Z,1.37
2023-01-28T01:36:00.387Z,1.30
2023-01-28T01:38:30.063Z,1.20
2023-01-28T01:40:59.757Z,1.00
2023-01-28T01:43:47.795Z,1.10
2023-01-28T01:46:18.206Z,1.30
2023-01-28T01:48:46.231Z,1.17
2023-01-28T01:51:18.583Z,1.43
2023-01-28T01:53:51.303Z,0.90
2023-01-28T01:56:22.467Z,1.00
2023-01-28T01:58:53.887Z,1.13
2023-01-28T02:01:23.750Z,1.30
2023-01-28T02:03:58.432Z,1.83
2023-01-28T02:06:27.194Z,1.40
2023-01-28T02:08:57.041Z,1.57
2023-01-28T02:11:28.103Z,1.70
2023-01-28T02:13:59.178Z,1.57
2023-01-28T02:16:27.940Z,1.70
2023-01-28T02:18:56.119Z,1.30
2023-01-28T02:22:11.135Z,1.70
2023-01-28T02:25:26.649Z,1.70
2023-01-28T02:28:10.819Z,2.30
2023-01-28T02:30:43.522Z,1.53
2023-01-28T02:33:19.179Z,5.73
2023-01-28T02:35:53.421Z,1.80
2023-01-28T02:38:27.648Z,1.57
2023-01-28T02:41:06.422Z,1.87
2023-01-28T02:43:39.003Z,1.60
2023-01-28T02:46:34.895Z,1.87
2023-01-28T02:49:05.236Z,2.10
2023-01-28T02:51:53.965Z,2.17
2023-01-28T02:54:32.401Z,1.90
2023-01-28T02:57:11.913Z,1.70
2023-01-28T02:59:50.277Z,2.03
2023-01-28T03:02:24.318Z,2.20
2023-01-28T03:04:59.286Z,2.30
2023-01-28T03:07:30.833Z,1.53
2023-01-28T03:10:02.114Z,1.80
2023-01-28T03:12:48.912Z,1.87
2023-01-28T03:15:38.808Z,2.20
2023-01-28T03:18:27.141Z,2.47
2023-01-28T03:21:19.284Z,2.10
2023-01-28T03:24:10.960Z,2.03
2023-01-28T03:27:03.705Z,3.33
2023-01-28T03:29:51.793Z,2.07
2023-01-28T03:32:40.341Z,2.20
2023-01-28T03:35:29.207Z,2.87
2023-01-28T03:38:00.010Z,2.63
2023-01-28T03:40:28.393Z,2.83
2023-01-28T03:42:57.129Z,3.20
2023-01-28T03:45:25.017Z,2.50
2023-01-28T03:47:54.195Z,2.40
2023-01-28T03:50:22.066Z,3.70
2023-01-28T03:52:49.876Z,4.07
2023-01-28T03:55:17.801Z,2.40
2023-01-28T03:57:45.772Z,3.37
2023-01-28T04:00:17.287Z,7.00
2023-01-28T04:02:45.134Z,2.80
2023-01-28T04:05:16.457Z,3.37
2023-01-28T04:07:44.510Z,2.70
2023-01-28T04:10:13.325Z,5.03
2023-01-28T04:12:41.160Z,3.53
2023-01-28T04:15:15.886Z,3.87
2023-01-28T04:17:47.787Z,2.60
2023-01-28T04:20:17.566Z,3.47
2023-01-28T04:22:45.376Z,4.20
2023-01-28T04:25:13.712Z,4.27
2023-01-28T04:27:41.808Z,3.67
2023-01-28T04:30:10.956Z,3.07
2023-01-28T04:32:39.437Z,3.33
2023-01-28T04:35:08.071Z,5.97
2023-01-28T04:37:37.274Z,4.60
2023-01-28T04:40:05.733Z,3.10
2023-01-28T04:42:33.546Z,2.77
2023-01-28T04:45:01.423Z,4.53
2023-01-28T04:47:29.348Z,2.97
2023-01-28T04:49:57.262Z,3.57
2023-01-28T04:52:25.294Z,5.53
2023-01-28T04:54:54.535Z,3.77
2023-01-28T04:57:22.490Z,3.40
2023-01-28T04:59:50.341Z,3.37
2023-01-28T05:02:18.277Z,4.07
2023-01-28T05:04:46.252Z,4.13
2023-01-28T05:07:14.176Z,4.33
2023-01-28T05:09:42.024Z,4.60
2023-01-28T05:12:11.218Z,3.50
2023-01-28T05:14:39.078Z,5.80
2023-01-28T05:17:07.123Z,4.20
2023-01-28T05:19:35.065Z,4.30
2023-01-28T05:22:02.914Z,4.73
2023-01-28T05:24:30.938Z,4.40
2023-01-28T05:26:58.848Z,4.90
2023-01-28T05:29:28.046Z,3.30
2023-01-28T05:31:55.947Z,4.67
2023-01-28T05:34:23.812Z,3.80
2023-01-28T05:36:51.728Z,4.60
2023-01-28T05:39:19.623Z,4.17
2023-01-28T05:41:47.512Z,3.50
2023-01-28T05:44:15.568Z,4.13
2023-01-28T05:46:46.679Z,4.30
2023-01-28T05:49:14.635Z,4.13
2023-01-28T05:51:42.547Z,4.77
2023-01-28T05:54:10.799Z,4.23
2023-01-28T05:56:40.275Z,4.30
2023-01-28T05:59:10.361Z,2.73
2023-01-28T06:01:38.309Z,5.20
2023-01-28T06:04:07.511Z,4.80
2023-01-28T06:06:35.391Z,3.90
2023-01-28T06:09:03.272Z,4.90
2023-01-28T06:11:31.137Z,4.23
2023-01-28T06:13:59.072Z,3.37
2023-01-28T06:16:26.940Z,3.97
2023-01-28T06:18:54.779Z,5.43
2023-01-28T06:21:24.053Z,4.33
2023-01-28T06:23:51.961Z,2.90
2023-01-28T06:26:19.950Z,3.17
2023-01-28T06:28:47.972Z,2.93
2023-01-28T06:31:15.840Z,4.43
2023-01-28T06:33:43.718Z,4.10
2023-01-28T06:36:11.756Z,4.30
2023-01-28T06:38:40.986Z,4.43
2023-01-28T06:41:08.861Z,2.87
2023-01-28T06:43:36.673Z,2.70
2023-01-28T06:46:04.730Z,2.40
2023-01-28T06:48:32.602Z,3.03
2023-01-28T06:51:00.480Z,2.77
2023-01-28T06:53:28.383Z,2.20
2023-01-28T06:55:57.584Z,2.70
2023-01-28T06:58:25.516Z,3.10
2023-01-28T07:00:54.534Z,2.70
2023-01-28T07:03:22.459Z,3.97
2023-01-28T07:05:50.368Z,2.90
2023-01-28T07:08:18.233Z,2.43
2023-01-28T07:10:46.364Z,2.90
2023-01-28T07:13:15.545Z,2.40
2023-01-28T07:15:43.441Z,3.63
2023-01-28T07:18:11.356Z,2.50
2023-01-28T07:20:39.242Z,2.60
2023-01-28T07:23:07.057Z,2.03
2023-01-28T07:25:35.148Z,1.80
2023-01-28T07:28:03.142Z,2.40
2023-01-28T07:30:32.438Z,2.00
2023-01-28T07:33:00.974Z,2.10
2023-01-28T07:35:29.722Z,4.77
2023-01-28T07:37:59.495Z,4.20
2023-01-28T07:40:28.444Z,2.60
2023-01-28T07:42:56.794Z,4.53
2023-01-28T07:45:25.908Z,2.40
2023-01-28T07:48:00.469Z,2.30
2023-01-28T07:50:29.856Z,2.43
2023-01-28T07:52:58.500Z,2.83
2023-01-28T07:55:28.847Z,4.53
2023-01-28T07:58:00.212Z,1.97
2023-01-28T08:00:31.279Z,3.10
2023-01-28T08:03:02.268Z,2.70
2023-01-28T08:05:41.013Z,2.80
2023-01-28T08:08:09.781Z,2.50
2023-01-28T08:10:39.910Z,2.73
2023-01-28T08:13:08.601Z,3.93
2023-01-28T08:15:36.891Z,3.50
2023-01-28T08:18:08.212Z,3.50
2023-01-28T08:20:36.258Z,2.97
2023-01-28T08:23:09.052Z,3.27
2023-01-28T08:25:37.391Z,4.77
2023-01-28T08:28:06.323Z,2.57
2023-01-28T08:30:34.597Z,2.77
2023-01-28T08:33:02.626Z,2.27
2023-01-28T08:35:31.875Z,3.63
2023-01-28T08:38:00.969Z,3.87
2023-01-28T08:40:29.590Z,4.60
2023-01-28T08:42:58.248Z,3.10
2023-01-28T08:45:28.231Z,2.83
2023-01-28T08:47:58.412Z,8.40
2023-01-28T08:50:28.177Z,4.70
2023-01-28T08:52:59.429Z,3.80
2023-01-28T08:55:27.928Z,3.77
2023-01-28T08:57:58.226Z,3.57
2023-01-28T09:00:26.434Z,3.70
2023-01-28T09:02:54.812Z,2.90
2023-01-28T09:05:23.000Z,4.17
2023-01-28T09:07:51.262Z,3.37
2023-01-28T09:10:21.925Z,4.93
2023-01-28T09:12:49.773Z,3.20
2023-01-28T09:15:18.827Z,3.80
2023-01-28T09:17:46.744Z,3.30
2023-01-28T09:20:15.037Z,3.13
2023-01-28T09:22:43.084Z,3.60
2023-01-28T09:25:11.175Z,2.63
2023-01-28T09:27:40.476Z,3.27
2023-01-28T09:30:10.435Z,2.33
2023-01-28T09:32:38.362Z,3.90
2023-01-28T09:35:07.059Z,3.27
2023-01-28T09:37:35.031Z,3.33
2023-01-28T09:40:03.062Z,3.10
2023-01-28T09:42:57.947Z,3.70
2023-01-28T09:45:32.512Z,2.50
2023-01-28T09:48:03.561Z,2.67
2023-01-28T09:50:35.033Z,3.60
2023-01-28T09:53:08.016Z,3.90
2023-01-28T09:55:38.685Z,2.30
2023-01-28T09:58:12.992Z,3.27
2023-01-28T10:00:48.972Z,2.83
2023-01-28T10:03:42.133Z,4.40
2023-01-28T10:06:21.263Z,4.80
2023-01-28T10:09:16.069Z,3.37
2023-01-28T10:12:02.333Z,2.70
2023-01-28T10:14:46.927Z,3.80
2023-01-28T10:17:18.997Z,4.93
2023-01-28T10:19:51.417Z,2.77
2023-01-28T10:22:23.223Z,2.13
2023-01-28T10:24:54.674Z,3.07
2023-01-28T10:27:24.314Z,3.20
2023-01-28T10:29:55.522Z,4.87
2023-01-28T10:32:30.009Z,2.33
2023-01-28T10:34:59.789Z,2.43
2023-01-28T10:37:28.615Z,6.83
2023-01-28T10:40:00.147Z,3.00
2023-01-28T10:42:30.154Z,3.90
2023-01-28T10:45:03.531Z,3.00
2023-01-28T10:47:34.774Z,1.80
2023-01-28T10:50:03.902Z,2.60
2023-01-28T10:52:31.847Z,3.60
2023-01-28T10:55:04.045Z,3.80
2023-01-28T10:57:34.694Z,2.10
2023-01-28T11:00:14.792Z,1.90
2023-01-28T11:02:43.282Z,2.87
2023-01-28T11:05:18.224Z,1.83
2023-01-28T11:07:46.216Z,1.63
2023-01-28T11:10:27.094Z,2.00
2023-01-28T11:12:58.925Z,2.30
2023-01-28T11:15:28.219Z,1.77
2023-01-28T11:17:59.181Z,1.20
2023-01-28T11:20:29.579Z,1.77
2023-01-28T11:22:58.442Z,1.70
2023-01-28T11:25:31.557Z,1.77
2023-01-28T11:28:00.956Z,4.23
2023-01-28T11:30:34.118Z,1.63
2023-01-28T11:33:09.078Z,1.57
2023-01-28T11:35:37.147Z,1.40
2023-01-28T11:38:14.959Z,2.50
2023-01-28T11:40:51.143Z,1.50
2023-01-28T11:43:19.147Z,3.40
2023-01-28T11:45:59.875Z,1.40
2023-01-28T11:48:35.631Z,1.67
2023-01-28T11:51:07.743Z,2.60
2023-01-28T11:53:55.822Z,1.80
2023-01-28T11:56:46.563Z,1.57
2023-01-28T11:59:37.520Z,2.20
2023-01-28T12:02:23.861Z,1.60
2023-01-28T12:05:06.406Z,1.80
2023-01-28T12:07:46.343Z,1.90
2023-01-28T12:10:23.850Z,2.70
2023-01-28T12:13:08.720Z,5.00
2023-01-28T12:16:08.526Z,5.03
2023-01-28T12:18:52.995Z,2.20
2023-01-28T12:21:33.588Z,1.97
2023-01-28T12:24:16.888Z,2.60
2023-01-28T12:26:52.101Z,2.83
2023-01-28T12:29:28.094Z,2.27
2023-01-28T12:32:11.940Z,1.17
2023-01-28T12:35:12.499Z,1.70
2023-01-28T12:37:55.521Z,2.17
2023-01-28T12:40:43.777Z,1.83
2023-01-28T12:43:16.851Z,2.57
2023-01-28T12:45:48.152Z,1.80
2023-01-28T12:48:20.198Z,2.73
2023-01-28T12:50:54.054Z,1.73
2023-01-28T12:53:27.634Z,2.00
2023-01-28T12:56:04.287Z,2.17
2023-01-28T12:58:40.245Z,2.57
2023-01-28T13:01:12.227Z,1.70
2023-01-28T13:03:44.957Z,1.83
2023-01-28T13:06:20.909Z,1.40
2023-01-28T13:08:50.330Z,1.60
2023-01-28T13:11:19.558Z,1.73
2023-01-28T13:13:48.293Z,2.60
2023-01-28T13:16:17.860Z,2.53
2023-01-28T13:18:47.399Z,3.70
2023-01-28T13:21:32.493Z,2.60
2023-01-28T13:24:08.536Z,2.83
2023-01-28T13:26:45.048Z,1.90
2023-01-28T13:29:23.108Z,1.63
2023-01-28T13:31:52.821Z,1.97
2023-01-28T13:34:36.276Z,2.40
2023-01-28T13:37:22.228Z,2.27
2023-01-28T13:39:53.105Z,2.00
2023-01-28T13:42:27.201Z,2.07
2023-01-28T13:44:55.431Z,3.20
2023-01-28T13:47:28.276Z,2.40
2023-01-28T13:49:59.192Z,1.97
2023-01-28T13:52:31.865Z,1.50
2023-01-28T13:55:06.358Z,1.50
2023-01-28T13:58:17.013Z,3.00
2023-01-28T14:01:04.443Z,1.77
2023-01-28T14:03:59.223Z,1.67
2023-01-28T14:06:53.715Z,2.30
2023-01-28T14:09:37.930Z,2.70
2023-01-28T14:12:32.219Z,1.67
2023-01-28T14:15:23.109Z,3.50
2023-01-28T14:17:54.404Z,2.73
2023-01-28T14:20:26.321Z,1.70
2023-01-28T14:23:00.657Z,2.50
2023-01-28T14:25:37.997Z,2.03
2023-01-28T14:28:08.708Z,1.47
2023-01-28T14:30:51.063Z,1.80
2023-01-28T14:33:19.166Z,2.20
2023-01-28T14:35:49.489Z,1.80
2023-01-28T14:38:19.736Z,4.37
2023-01-28T14:40:51.331Z,2.40
2023-01-28T14:43:22.853Z,2.13
2023-01-28T14:46:08.234Z,1.83
2023-01-28T14:48:41.795Z,2.07
2023-01-28T14:51:27.459Z,1.50
2023-01-28T14:54:11.168Z,1.93
2023-01-28T14:56:55.662Z,3.03
2023-01-28T14:59:27.306Z,4.47
2023-01-28T15:01:58.802Z,1.90
2023-01-28T15:04:29.143Z,1.90
2023-01-28T15:06:58.780Z,1.93
2023-01-28T15:09:26.651Z,1.83
2023-01-28T15:11:58.729Z,2.07
2023-01-28T15:14:30.099Z,2.30
2023-01-28T15:16:58.753Z,1.90
2023-01-28T15:19:30.850Z,2.27
2023-01-28T15:22:01.018Z,2.40
2023-01-28T15:24:29.218Z,2.40
2023-01-28T15:26:58.743Z,2.60
2023-01-28T15:29:32.113Z,2.43
2023-01-28T15:32:00.405Z,3.33
2023-01-28T15:34:30.443Z,3.07
2023-01-28T15:36:58.840Z,2.10
2023-01-28T15:39:28.894Z,2.03
2023-01-28T15:42:01.160Z,2.47
2023-01-28T15:44:32.138Z,2.47
2023-01-28T15:47:01.962Z,3.87
2023-01-28T15:49:33.766Z,2.67
2023-01-28T15:52:02.145Z,2.70
2023-01-28T15:54:31.392Z,3.03
2023-01-28T15:57:10.526Z,3.27
2023-01-28T15:59:38.624Z,3.07
2023-01-28T16:02:18.655Z,2.97
2023-01-28T16:04:57.496Z,2.93
2023-01-28T16:07:25.782Z,2.33
2023-01-28T16:09:54.851Z,3.40
2023-01-28T16:12:26.821Z,3.33
2023-01-28T16:14:57.734Z,3.40
2023-01-28T16:17:28.654Z,2.87
2023-01-28T16:20:00.797Z,3.93
2023-01-28T16:22:35.195Z,4.50
2023-01-28T16:25:04.586Z,4.03
2023-01-28T16:27:33.778Z,4.53
2023-01-28T16:30:02.448Z,4.70
2023-01-28T16:32:34.959Z,4.57
2023-01-28T16:35:03.355Z,4.90
2023-01-28T16:37:31.319Z,8.30
2023-01-28T16:40:01.445Z,5.97
2023-01-28T16:42:30.366Z,4.63
2023-01-28T16:44:59.651Z,7.60
2023-01-28T16:47:28.535Z,5.07
2023-01-28T16:49:56.447Z,5.60
2023-01-28T16:52:24.358Z,7.07
2023-01-28T16:54:52.221Z,7.00
2023-01-28T16:57:21.538Z,7.00
2023-01-28T16:59:49.693Z,5.63
2023-01-28T17:02:19.006Z,5.50
2023-01-28T17:04:46.864Z,5.47
2023-01-28T17:07:14.731Z,5.33
2023-01-28T17:09:42.580Z,8.50
2023-01-28T17:12:10.401Z,8.83
2023-01-28T17:14:39.268Z,5.50
2023-01-28T17:17:07.186Z,6.83
2023-01-28T17:19:36.500Z,5.10
2023-01-28T17:22:04.345Z,6.97
2023-01-28T17:24:32.248Z,5.10
2023-01-28T17:27:00.141Z,5.23
2023-01-28T17:29:28.049Z,7.77
2023-01-28T17:31:55.975Z,6.13
2023-01-28T17:34:23.868Z,6.20
2023-01-28T17:36:53.132Z,5.00
2023-01-28T17:39:20.988Z,7.40
2023-01-28T17:41:52.021Z,8.10
2023-01-28T17:44:23.870Z,7.83
2023-01-28T17:46:51.859Z,8.20
2023-01-28T17:49:19.720Z,6.60
2023-01-28T17:51:48.518Z,5.03
2023-01-28T17:54:18.234Z,6.57
2023-01-28T17:56:46.166Z,4.70
2023-01-28T17:59:16.768Z,5.80
2023-01-28T18:01:47.442Z,6.37
2023-01-28T18:04:15.491Z,5.47
2023-01-28T18:06:43.352Z,7.67
2023-01-28T18:09:12.279Z,5.17
2023-01-28T18:11:41.570Z,7.93
2023-01-28T18:14:09.437Z,5.27
2023-01-28T18:16:37.398Z,6.30
2023-01-28T18:19:06.251Z,5.73
2023-01-28T18:21:51.753Z,6.50
2023-01-28T18:24:20.950Z,5.57
2023-01-28T18:26:50.639Z,6.30
2023-01-28T18:29:20.716Z,5.73
2023-01-28T18:31:49.392Z,7.03
2023-01-28T18:34:17.627Z,8.47
2023-01-28T18:36:46.319Z,6.57
2023-01-28T18:39:15.245Z,5.60
2023-01-28T18:41:43.193Z,6.67
2023-01-28T18:44:14.346Z,6.10
2023-01-28T18:46:42.302Z,4.77
2023-01-28T18:49:11.151Z,4.67
2023-01-28T18:51:40.211Z,4.13
2023-01-28T18:54:11.945Z,4.87
2023-01-28T18:56:41.385Z,3.93
2023-01-28T18:59:13.494Z,5.10
2023-01-28T19:01:42.663Z,4.63
2023-01-28T19:04:11.349Z,5.90
2023-01-28T19:06:39.229Z,4.93
2023-01-28T19:09:08.111Z,5.13
2023-01-28T19:11:37.856Z,8.00
2023-01-28T19:14:08.168Z,5.00
2023-01-28T19:16:37.795Z,5.00
2023-01-28T19:19:07.259Z,4.37
2023-01-28T19:21:35.252Z,4.20
2023-01-28T19:24:06.556Z,5.97
2023-01-28T19:26:34.659Z,7.27
2023-01-28T19:29:02.720Z,9.30
2023-01-28T19:31:30.747Z,10.10
2023-01-28T19:34:01.467Z,7.43
2023-01-28T19:36:31.299Z,9.10
2023-01-28T19:39:00.063Z,9.03
2023-01-28T19:41:28.402Z,7.70
2023-01-28T19:43:56.889Z,7.20
2023-01-28T19:46:24.811Z,5.40
2023-01-28T19:48:52.928Z,5.30
2023-01-28T19:51:22.838Z,10.80
2023-01-28T19:53:51.861Z,4.27
2023-01-28T19:56:21.364Z,6.63
2023-01-28T19:58:49.662Z,4.97
2023-01-28T20:01:20.283Z,4.67
2023-01-28T20:03:52.662Z,6.90
2023-01-28T20:06:22.712Z,6.20
2023-01-28T20:08:53.872Z,5.57
2023-01-28T20:11:22.765Z,6.40
2023-01-28T20:13:51.557Z,6.63
2023-01-28T20:16:21.844Z,6.27
2023-01-28T20:18:51.139Z,7.60
2023-01-28T20:21:19.901Z,7.70
2023-01-28T20:23:50.550Z,9.77
2023-01-28T20:26:21.275Z,9.13
2023-01-28T20:28:49.364Z,5.60
2023-01-28T20:31:17.958Z,6.57
2023-01-28T20:33:46.133Z,7.17
2023-01-28T20:36:15.382Z,6.63
2023-01-28T20:38:44.921Z,6.43
2023-01-28T20:41:15.817Z,5.43
2023-01-28T20:43:44.995Z,7.17
2023-01-28T20:46:15.804Z,7.77
2023-01-28T20:48:43.798Z,9.03
2023-01-28T20:51:13.664Z,8.50
2023-01-28T20:53:42.687Z,5.70
2023-01-28T20:56:12.770Z,6.90
2023-01-28T20:58:42.090Z,5.43
2023-01-28T21:01:17.377Z,4.80
2023-01-28T21:03:45.339Z,8.10
2023-01-28T21:06:13.224Z,10.17
2023-01-28T21:08:41.371Z,7.60
2023-01-28T21:11:10.001Z,14.00
2023-01-28T21:13:38.270Z,7.37
2023-01-28T21:16:08.914Z,7.80
2023-01-28T21:18:37.223Z,6.60
2023-01-28T21:21:06.242Z,6.13
2023-01-28T21:23:34.248Z,5.37
2023-01-28T21:26:03.818Z,5.40
2023-01-28T21:28:32.054Z,4.17
2023-01-28T21:31:08.078Z,4.30
2023-01-28T21:33:36.023Z,4.67
2023-01-28T21:36:09.526Z,4.57
2023-01-28T21:38:37.408Z,5.50
2023-01-28T21:41:05.724Z,4.20
2023-01-28T21:43:34.009Z,5.90
2023-01-28T21:46:02.647Z,6.50
2023-01-28T21:48:31.899Z,6.73
2023-01-28T21:51:23.359Z,5.40
2023-01-28T21:53:51.289Z,3.60
2023-01-28T21:56:19.383Z,4.20
2023-01-28T21:59:04.672Z,6.03
2023-01-28T22:01:32.566Z,5.63
2023-01-28T22:04:01.836Z,5.10
2023-01-28T22:06:29.866Z,4.83
2023-01-28T22:08:57.749Z,4.13
2023-01-28T22:11:25.583Z,6.03
2023-01-28T22:13:53.410Z,7.80
2023-01-28T22:16:21.330Z,6.07
2023-01-28T22:18:50.175Z,3.80
2023-01-28T22:21:19.391Z,5.07
2023-01-28T22:23:47.216Z,6.70
2023-01-28T22:26:15.117Z,5.27
2023-01-28T22:28:43.026Z,5.40
2023-01-28T22:31:13.262Z,5.27
2023-01-28T22:33:42.434Z,8.33
2023-01-28T22:36:13.680Z,5.80
2023-01-28T22:38:45.456Z,6.43
2023-01-28T22:41:14.972Z,6.93
2023-01-28T22:43:43.288Z,5.50
2023-01-28T22:46:11.866Z,10.67
2023-01-28T22:48:40.815Z,5.77
2023-01-28T22:51:11.442Z,6.07
2023-01-28T22:53:39.387Z,6.87
2023-01-28T22:56:09.169Z,6.17
2023-01-28T22:58:37.195Z,6.33
2023-01-28T23:01:05.975Z,6.80
2023-01-28T23:03:33.988Z,6.53
2023-01-28T23:06:02.923Z,6.10
2023-01-28T23:08:31.297Z,7.67
2023-01-28T23:11:02.799Z,5.90
2023-01-28T23:13:52.950Z,5.27
2023-01-28T23:16:38.044Z,6.10
2023-01-28T23:19:35.113Z,4.97
2023-01-28T23:22:20.613Z,5.73
2023-01-28T23:24:48.490Z,6.50
2023-01-28T23:27:16.395Z,5.53
2023-01-28T23:29:46.018Z,5.10
2023-01-28T23:32:14.007Z,6.27
2023-01-28T23:34:44.485Z,5.50
2023-01-28T23:37:13.974Z,4.60
2023-01-28T23:39:42.670Z,6.10
2023-01-28T23:42:11.826Z,4.57
2023-01-28T23:44:39.702Z,7.07
2023-01-28T23:47:09.413Z,7.13
2023-01-28T23:49:37.978Z,6.67
2023-01-28T23:52:06.992Z,6.03
2023-01-28T23:54:35.033Z,5.70
2023-01-28T23:57:04.001Z,5.90
2023-01-28T23:59:31.940Z,6.53
